Archival Weather

Chicago O'Hare International

Chicago, Illinois (KORD)

Report from: Friday, May 26, 2023 5:51 PM CDT
Current time: Wednesday, April 24, 2024 2:41 PM CDT

Current weather – Weather history – Daily summaries
Weather forecast

Temperature20.6°C (69.1°F)
Dew point-1.7°C (28.9°F)
Winds 8 kts (4.1 m/s, 9.2 mph) Northeast (40°)
Visibility10 mi. (16.1 km)
Clouds Few clouds 25,000 ft. (7,620 m)
Altimeter30.28 in.Hg (1025 mB)
Relative humidity22 %
Density altitude338 ft. (103 m)
Sea-level pressure102.5 kPa (1025 mB, 30.28 in.Hg)
Remarks Automated weather observing station with precipitation discriminator
Flight conditions Visual Meteorological Conditions
Raw dataKORD 262251Z 04008KT 10SM FEW250 21/M02 A3028 RMK AO2 SLP253 T02061017
An error has occurred. This application may no longer respond until reloaded. Reload 🗙